Time;durP1;ratioP1;P1;durP2;ratioP2;P2;SDS_P1;SDS_P2;PMS_P1;PMS_P2;Temp;Humidity;BMP_temperature;BMP_pressure;BME280_temperature;BME280_humidity;BME280_pressure;Samples;Min_cycle;Max_cycle;Signal;HPM_P1;HPM_P2
2023/09/29 00:01:46;;;;;;;6.30;5.70;;;;;;;12.20;100.00;101165.19;104123;1269;62025;-53
2023/09/29 00:04:14;;;;;;;7.00;5.30;;;;;;;12.20;100.00;101165.02;106822;1263;58794;-55
2023/09/29 00:06:42;;;;;;;7.70;5.70;;;;;;;12.22;100.00;101161.38;106404;1261;73095;-53
2023/09/29 00:09:12;;;;;;;8.60;6.00;;;;;;;12.24;100.00;101157.52;104167;1266;64526;-55
2023/09/29 00:11:41;;;;;;;7.10;5.90;;;;;;;12.26;100.00;101158.33;104156;1262;72596;-53
2023/09/29 00:14:08;;;;;;;7.00;5.90;;;;;;;12.29;100.00;101149.05;104439;1262;59571;-53
2023/09/29 00:16:35;;;;;;;11.20;6.60;;;;;;;12.32;100.00;101151.51;104253;1262;59692;-54
2023/09/29 00:19:03;;;;;;;7.30;6.60;;;;;;;12.32;100.00;101153.10;104162;1267;71855;-54
2023/09/29 00:21:30;;;;;;;9.90;6.40;;;;;;;12.30;100.00;101152.81;104240;1263;64771;-54
2023/09/29 00:23:58;;;;;;;8.70;7.20;;;;;;;12.27;100.00;101158.66;104131;1267;72386;-52
2023/09/29 00:26:25;;;;;;;8.20;6.90;;;;;;;12.26;100.00;101154.02;105374;1263;59742;-53
2023/09/29 00:28:54;;;;;;;8.90;6.20;;;;;;;12.25;100.00;101152.09;104372;1263;59629;-54
2023/09/29 00:31:21;;;;;;;7.30;6.30;;;;;;;12.17;100.00;101152.69;104002;1263;73013;-52
2023/09/29 00:33:49;;;;;;;9.60;5.70;;;;;;;12.06;100.00;101152.34;104311;1267;65665;-52
2023/09/29 00:36:16;;;;;;;7.00;6.20;;;;;;;11.99;100.00;101151.48;103986;1265;73612;-53
2023/09/29 00:38:44;;;;;;;7.30;6.60;;;;;;;11.93;100.00;101148.61;104251;1266;60546;-53
2023/09/29 00:41:11;;;;;;;8.10;6.00;;;;;;;11.88;100.00;101154.19;105694;1265;60382;-52
2023/09/29 00:43:39;;;;;;;7.80;6.30;;;;;;;11.87;100.00;101152.95;104091;1261;73824;-52
2023/09/29 00:46:08;;;;;;;7.80;6.60;;;;;;;11.88;100.00;101152.02;104275;1263;66970;-53
2023/09/29 00:48:38;;;;;;;6.10;5.50;;;;;;;11.90;100.00;101149.62;104177;1266;73581;-54
2023/09/29 00:51:06;;;;;;;8.20;6.60;;;;;;;11.92;100.00;101148.80;107560;1263;60552;-53
2023/09/29 00:53:34;;;;;;;8.70;7.60;;;;;;;11.89;100.00;101148.77;104025;1262;60543;-54
2023/09/29 00:56:02;;;;;;;8.50;7.40;;;;;;;11.86;100.00;101154.79;103903;1269;74900;-51
2023/09/29 00:58:30;;;;;;;8.30;7.30;;;;;;;11.82;100.00;101151.52;104129;1266;67466;-52
2023/09/29 01:00:57;;;;;;;8.50;7.70;;;;;;;11.79;100.00;101154.27;104470;1263;72923;-53
2023/09/29 01:03:25;;;;;;;9.00;7.00;;;;;;;11.77;100.00;101148.77;104333;1267;62183;-52
2023/09/29 01:05:54;;;;;;;9.70;6.60;;;;;;;11.74;100.00;101149.72;104318;1263;60615;-52
2023/09/29 01:08:22;;;;;;;8.80;6.10;;;;;;;11.73;100.00;101150.11;104039;1261;72637;-53
2023/09/29 01:10:52;;;;;;;7.20;6.30;;;;;;;11.72;100.00;101150.52;104159;1263;65840;-50
2023/09/29 01:13:22;;;;;;;8.70;5.50;;;;;;;11.71;100.00;101147.48;104120;1264;73233;-54
2023/09/29 01:15:50;;;;;;;6.10;5.50;;;;;;;11.69;100.00;101146.80;104522;1267;62158;-50
2023/09/29 01:18:17;;;;;;;9.90;5.60;;;;;;;11.69;100.00;101148.63;104117;1264;60651;-51
2023/09/29 01:20:46;;;;;;;6.60;5.90;;;;;;;11.70;100.00;101147.52;104077;1266;73858;-52
2023/09/29 01:23:13;;;;;;;6.80;6.30;;;;;;;11.71;100.00;101149.64;104047;1263;67399;-53
2023/09/29 01:25:41;;;;;;;8.50;6.80;;;;;;;11.71;100.00;101148.19;104105;1263;73166;-53
2023/09/29 01:28:08;;;;;;;9.90;6.90;;;;;;;11.72;100.00;101147.98;103993;1263;61223;-52
2023/09/29 01:30:40;;;;;;;8.40;7.50;;;;;;;11.73;100.00;101146.73;104130;1268;60392;-51
2023/09/29 01:33:08;;;;;;;9.50;7.80;;;;;;;11.72;100.00;101146.91;104340;1265;76191;-54
2023/09/29 01:35:36;;;;;;;8.20;7.40;;;;;;;11.71;100.00;101147.48;104205;1263;64698;-53
2023/09/29 01:38:03;;;;;;;11.80;7.20;;;;;;;11.71;100.00;101145.88;104153;1268;73208;-50
2023/09/29 01:40:31;;;;;;;7.40;6.40;;;;;;;11.69;100.00;101145.75;104983;1263;61344;-54
2023/09/29 01:42:59;;;;;;;11.60;6.90;;;;;;;11.68;100.00;101145.39;104208;1263;60475;-53
2023/09/29 01:45:26;;;;;;;7.90;6.60;;;;;;;11.67;100.00;101142.55;104359;1267;72645;-52
2023/09/29 01:47:55;;;;;;;7.20;6.40;;;;;;;11.67;100.00;101142.38;104575;1269;67572;-54
2023/09/29 01:50:23;;;;;;;7.40;6.50;;;;;;;11.66;100.00;101138.61;104881;1263;73286;-52
2023/09/29 01:52:51;;;;;;;6.50;5.80;;;;;;;11.68;100.00;101139.66;105285;1263;60569;-52
2023/09/29 01:55:19;;;;;;;7.40;5.90;;;;;;;11.69;100.00;101140.34;107525;1263;61116;-53
2023/09/29 01:57:48;;;;;;;7.00;6.20;;;;;;;11.69;100.00;101137.83;105335;1263;72643;-53
2023/09/29 02:00:25;;;;;;;11.50;5.90;;;;;;;11.67;100.00;101140.23;104181;1268;67003;-53
2023/09/29 02:02:53;;;;;;;9.20;6.40;;;;;;;11.65;100.00;101144.05;104606;1260;71486;-53
2023/09/29 02:05:23;;;;;;;9.80;8.90;;;;;;;11.63;100.00;101143.23;104235;1263;60577;-50
2023/09/29 02:07:51;;;;;;;10.20;8.00;;;;;;;11.59;100.00;101142.64;104966;1263;60567;-53
2023/09/29 02:10:20;;;;;;;9.40;8.50;;;;;;;11.54;100.00;101141.89;108374;1261;72853;-54
2023/09/29 02:12:55;;;;;;;9.00;8.10;;;;;;;11.48;100.00;101146.37;108416;1263;69952;-54
2023/09/29 02:15:24;;;;;;;11.00;6.90;;;;;;;11.44;100.00;101146.16;108305;1263;72670;-53
2023/09/29 02:17:52;;;;;;;6.60;6.00;;;;;;;11.41;100.00;101144.45;108299;1263;61713;-54
2023/09/29 02:20:28;;;;;;;9.20;6.80;;;;;;;11.36;100.00;101140.27;108500;1262;59086;-54
2023/09/29 02:22:57;;;;;;;7.20;5.80;;;;;;;11.31;100.00;101138.43;108350;1264;74097;-54
2023/09/29 02:25:28;;;;;;;8.90;5.80;;;;;;;11.29;100.00;101140.66;108313;1263;67273;-54
2023/09/29 02:27:56;;;;;;;10.90;5.50;;;;;;;11.28;100.00;101139.98;108400;1262;71480;-53
2023/09/29 02:30:24;;;;;;;12.30;6.10;;;;;;;11.27;100.00;101140.89;108424;1261;61836;-53
2023/09/29 02:32:52;;;;;;;6.10;5.40;;;;;;;11.30;100.00;101142.96;108408;1262;59549;-54
2023/09/29 02:35:20;;;;;;;8.50;6.60;;;;;;;11.33;100.00;101138.73;108376;1262;73950;-54
2023/09/29 02:37:47;;;;;;;9.50;6.30;;;;;;;11.33;100.00;101139.96;108418;1264;66738;-54
2023/09/29 02:40:18;;;;;;;8.40;7.10;;;;;;;11.33;100.00;101142.14;108358;1263;73015;-55
2023/09/29 02:42:46;;;;;;;11.30;7.00;;;;;;;11.34;100.00;101141.40;108467;1263;58866;-53
2023/09/29 02:45:13;;;;;;;16.00;8.60;;;;;;;11.35;100.00;101142.27;109049;1254;60049;-54
2023/09/29 02:47:46;;;;;;;8.50;7.80;;;;;;;11.35;100.00;101144.25;108793;1254;72005;-53
2023/09/29 02:50:15;;;;;;;7.00;6.30;;;;;;;11.34;100.00;101143.56;108889;1254;67131;-54
2023/09/29 02:52:42;;;;;;;9.40;6.10;;;;;;;11.31;100.00;101141.13;108756;1254;73565;-54
2023/09/29 02:55:14;;;;;;;7.10;5.30;;;;;;;11.31;100.00;101146.73;108913;1254;61667;-54
2023/09/29 02:57:43;;;;;;;11.90;6.20;;;;;;;11.29;100.00;101143.90;107103;1254;60443;-54
2023/09/29 03:00:15;;;;;;;8.50;6.30;;;;;;;11.26;100.00;101144.88;104615;1254;73911;-53
2023/09/29 03:02:43;;;;;;;8.20;5.90;;;;;;;11.23;100.00;101141.74;107129;1256;67441;-52
2023/09/29 03:05:14;;;;;;;9.90;5.60;;;;;;;11.18;100.00;101140.95;104802;1257;72747;-53
2023/09/29 03:07:42;;;;;;;6.40;5.90;;;;;;;11.17;100.00;101139.76;105148;1254;60579;-52
2023/09/29 03:10:14;;;;;;;7.80;6.50;;;;;;;11.18;100.00;101141.88;108656;1254;62226;-54
2023/09/29 03:12:43;;;;;;;12.50;6.60;;;;;;;11.20;100.00;101142.38;107943;1254;73863;-53
2023/09/29 03:15:13;;;;;;;9.00;7.00;;;;;;;11.21;100.00;101135.52;104711;1254;67207;-53
2023/09/29 03:17:42;;;;;;;7.70;7.00;;;;;;;11.22;100.00;101133.50;104574;1254;72326;-51
2023/09/29 03:20:12;;;;;;;7.70;6.80;;;;;;;11.22;100.00;101135.29;105350;1254;61617;-53
2023/09/29 03:22:45;;;;;;;8.00;7.30;;;;;;;11.22;100.00;101134.23;108846;1254;59126;-54
2023/09/29 03:25:20;;;;;;;13.40;7.40;;;;;;;11.20;100.00;101135.18;107328;1258;74257;-53
2023/09/29 03:27:48;;;;;;;9.40;6.80;;;;;;;11.17;100.00;101135.06;104694;1256;67959;-53
2023/09/29 03:30:15;;;;;;;7.90;7.10;;;;;;;11.08;100.00;101134.27;104700;1257;71484;-52
2023/09/29 03:32:43;;;;;;;9.10;6.90;;;;;;;10.94;100.00;101130.34;105069;1254;61730;-54
2023/09/29 03:35:13;;;;;;;6.80;6.20;;;;;;;10.81;100.00;101130.34;104527;1257;61381;-53
2023/09/29 03:37:43;;;;;;;8.00;7.20;;;;;;;10.73;100.00;101133.27;106305;1254;74467;-53
2023/09/29 03:40:15;;;;;;;7.50;6.50;;;;;;;10.70;100.00;101130.48;105001;1257;65608;-54
2023/09/29 03:42:42;;;;;;;6.80;6.00;;;;;;;10.72;100.00;101132.06;104876;1257;73164;-53
2023/09/29 03:45:11;;;;;;;7.00;6.30;;;;;;;10.75;100.00;101128.36;104542;1257;63772;-51
2023/09/29 03:47:39;;;;;;;7.40;5.50;;;;;;;10.78;100.00;101130.80;105437;1259;60475;-54
2023/09/29 03:50:10;;;;;;;6.90;6.30;;;;;;;10.82;100.00;101131.92;105134;1254;72825;-53
2023/09/29 03:52:39;;;;;;;9.20;6.20;;;;;;;10.85;100.00;101130.79;108653;1254;65667;-54
2023/09/29 03:55:09;;;;;;;6.30;5.80;;;;;;;10.88;100.00;101130.71;108304;1254;71702;-54
2023/09/29 03:57:37;;;;;;;7.40;6.90;;;;;;;10.89;100.00;101126.33;104947;1254;60531;-53
2023/09/29 04:00:11;;;;;;;8.80;7.80;;;;;;;10.91;100.00;101132.75;105187;1258;60542;-53
2023/09/29 04:02:40;;;;;;;10.40;7.70;;;;;;;10.92;100.00;101130.59;105016;1256;73917;-52
2023/09/29 04:05:09;;;;;;;7.70;6.80;;;;;;;10.92;100.00;101130.95;105936;1257;66184;-53
2023/09/29 04:07:38;;;;;;;7.60;6.90;;;;;;;10.91;100.00;101132.94;105620;1259;72429;-54
2023/09/29 04:10:08;;;;;;;8.00;7.10;;;;;;;10.82;100.00;101128.88;105062;1255;62166;-52
2023/09/29 04:12:37;;;;;;;7.50;6.70;;;;;;;10.69;100.00;101134.27;105144;1255;60899;-54
2023/09/29 04:15:06;;;;;;;6.50;5.90;;;;;;;10.58;100.00;101134.91;104744;1259;71718;-53
2023/09/29 04:17:34;;;;;;;6.40;5.90;;;;;;;10.48;100.00;101136.45;104780;1257;67041;-53
2023/09/29 04:20:03;;;;;;;7.70;7.10;;;;;;;10.42;100.00;101133.35;104579;1254;72754;-53
2023/09/29 04:22:32;;;;;;;6.70;5.90;;;;;;;10.44;100.00;101131.86;105801;1256;62125;-52
2023/09/29 04:24:59;;;;;;;6.20;5.60;;;;;;;10.49;100.00;101132.45;105321;1257;60585;-52
2023/09/29 04:27:26;;;;;;;5.40;5.00;;;;;;;10.55;100.00;101134.83;104656;1254;73931;-53
2023/09/29 04:29:54;;;;;;;6.70;5.80;;;;;;;10.61;100.00;101134.30;104726;1258;65559;-53
2023/09/29 04:32:21;;;;;;;8.20;5.10;;;;;;;10.69;100.00;101134.27;104887;1259;73168;-52
2023/09/29 04:34:48;;;;;;;6.70;5.30;;;;;;;10.76;100.00;101130.48;104537;1255;60651;-52
2023/09/29 04:37:16;;;;;;;7.30;6.40;;;;;;;10.83;100.00;101128.67;104460;1254;60603;-53
2023/09/29 04:39:43;;;;;;;11.50;7.40;;;;;;;10.89;100.00;101122.39;104543;1253;73237;-53
2023/09/29 04:42:10;;;;;;;9.30;6.90;;;;;;;10.96;100.00;101126.69;104791;1259;66998;-53
2023/09/29 04:44:38;;;;;;;7.30;6.70;;;;;;;11.03;100.00;101123.81;104773;1257;72390;-51
2023/09/29 04:47:06;;;;;;;7.10;6.50;;;;;;;11.08;100.00;101126.88;106428;1258;60587;-53
2023/09/29 04:49:34;;;;;;;10.20;7.30;;;;;;;11.10;100.00;101128.46;104817;1257;60736;-51
2023/09/29 04:52:01;;;;;;;6.00;5.20;;;;;;;11.06;100.00;101124.43;104876;1257;74092;-52
2023/09/29 04:54:28;;;;;;;5.80;5.30;;;;;;;11.05;100.00;101122.88;104739;1257;67535;-52
2023/09/29 04:56:56;;;;;;;6.30;5.50;;;;;;;11.05;100.00;101127.17;104768;1257;71403;-52
2023/09/29 04:59:23;;;;;;;6.20;5.50;;;;;;;11.07;100.00;101127.80;104847;1253;60559;-53
2023/09/29 05:01:50;;;;;;;9.40;4.90;;;;;;;11.12;100.00;101129.48;104755;1259;60620;-51
2023/09/29 05:04:18;;;;;;;7.60;6.50;;;;;;;11.18;100.00;101129.48;104877;1257;73973;-51
2023/09/29 05:06:46;;;;;;;10.00;5.40;;;;;;;11.24;100.00;101130.54;105000;1257;65778;-52
2023/09/29 05:09:13;;;;;;;9.50;5.80;;;;;;;11.31;100.00;101133.59;104907;1254;72808;-52
2023/09/29 05:11:40;;;;;;;6.70;6.10;;;;;;;11.37;100.00;101135.57;104777;1258;62511;-53
2023/09/29 05:14:08;;;;;;;6.30;4.70;;;;;;;11.46;100.00;101135.30;108937;1254;58808;-53
2023/09/29 05:16:35;;;;;;;6.40;5.50;;;;;;;11.57;100.00;101139.10;108967;1254;73755;-53
2023/09/29 05:19:03;;;;;;;8.90;5.20;;;;;;;11.71;100.00;101135.25;108794;1255;65805;-53
2023/09/29 05:21:31;;;;;;;12.80;5.90;;;;;;;11.88;100.00;101134.55;109055;1256;71171;-52
2023/09/29 05:23:58;;;;;;;8.00;5.50;;;;;;;12.07;100.00;101134.30;108964;1256;60480;-53
2023/09/29 05:26:27;;;;;;;6.70;6.20;;;;;;;12.26;100.00;101138.17;109019;1257;60134;-53
2023/09/29 05:28:55;;;;;;;7.20;6.30;;;;;;;12.45;100.00;101134.13;108946;1256;73213;-53
2023/09/29 05:31:23;;;;;;;8.20;7.30;;;;;;;12.64;100.00;101134.01;109020;1256;66952;-53
2023/09/29 05:33:53;;;;;;;8.10;6.60;;;;;;;12.81;100.00;101136.09;109023;1255;71411;-53
2023/09/29 05:36:21;;;;;;;7.40;6.60;;;;;;;12.98;100.00;101130.23;108984;1254;60458;-53
2023/09/29 05:38:49;;;;;;;10.10;7.30;;;;;;;13.15;100.00;101131.46;108952;1254;59996;-53
2023/09/29 05:41:17;;;;;;;11.40;6.80;;;;;;;13.30;100.00;101127.66;108992;1254;74178;-53
2023/09/29 05:43:44;;;;;;;13.50;7.40;;;;;;;13.45;100.00;101126.38;108924;1256;67018;-54
2023/09/29 05:46:12;;;;;;;7.70;6.80;;;;;;;13.60;100.00;101125.94;108881;1254;71453;-53
2023/09/29 05:48:39;;;;;;;6.90;6.30;;;;;;;13.76;100.00;101127.14;109021;1257;60397;-53
2023/09/29 05:51:07;;;;;;;7.60;6.70;;;;;;;13.90;100.00;101118.78;108847;1254;58809;-53
2023/09/29 05:53:34;;;;;;;7.40;5.60;;;;;;;14.05;100.00;101117.66;108862;1254;74283;-54
2023/09/29 05:56:09;;;;;;;13.40;6.80;;;;;;;14.19;100.00;101116.88;108861;1254;65789;-54
2023/09/29 05:58:36;;;;;;;13.60;7.90;;;;;;;14.36;100.00;101116.18;108968;1254;71198;-53
2023/09/29 06:01:14;;;;;;;12.30;7.20;;;;;;;14.50;100.00;101109.98;108956;1254;58842;-53
2023/09/29 06:03:41;;;;;;;12.00;7.40;;;;;;;14.66;100.00;101106.23;106977;1254;60147;-52
2023/09/29 06:06:10;;;;;;;16.80;8.60;;;;;;;14.81;100.00;101105.94;104883;1258;72728;-53
2023/09/29 06:08:37;;;;;;;17.80;9.90;;;;;;;14.95;100.00;101105.49;107094;1254;66905;-55
2023/09/29 06:11:07;;;;;;;18.10;11.50;;;;;;;15.09;100.00;101108.11;104646;1257;71563;-52
2023/09/29 06:13:35;;;;;;;18.00;12.00;;;;;;;15.21;100.00;101107.20;104938;1256;62401;-52
2023/09/29 06:16:03;;;;;;;19.10;10.20;;;;;;;15.31;100.00;101108.88;104720;1254;60129;-53
2023/09/29 06:18:31;;;;;;;15.00;9.20;;;;;;;15.42;100.00;101110.34;106898;1257;72715;-52
2023/09/29 06:21:00;;;;;;;12.00;6.70;;;;;;;15.54;100.00;101107.48;106259;1259;66948;-53
2023/09/29 06:23:27;;;;;;;14.00;6.50;;;;;;;15.65;100.00;101111.46;105486;1256;73152;-53
2023/09/29 06:26:01;;;;;;;13.40;7.80;;;;;;;15.75;100.00;101107.70;104606;1257;60556;-53
2023/09/29 06:28:28;;;;;;;11.70;8.70;;;;;;;15.87;100.00;101111.10;104429;1258;60652;-53
2023/09/29 06:30:56;;;;;;;9.30;7.50;;;;;;;15.98;100.00;101105.36;104740;1253;74913;-53
2023/09/29 06:33:25;;;;;;;13.70;8.30;;;;;;;16.09;100.00;101105.50;104972;1259;67382;-54
2023/09/29 06:35:53;;;;;;;10.40;7.50;;;;;;;16.21;100.00;101107.80;104800;1254;72732;-53
2023/09/29 06:38:20;;;;;;;19.50;7.70;;;;;;;16.33;100.00;101108.86;104775;1259;60544;-52
2023/09/29 06:40:48;;;;;;;22.70;11.70;;;;;;;16.43;100.00;101110.48;104884;1254;60583;-54
2023/09/29 06:43:17;;;;;;;16.30;9.20;;;;;;;16.52;100.00;101113.27;105431;1258;73782;-53
2023/09/29 06:45:45;;;;;;;19.70;10.20;;;;;;;16.60;100.00;101112.69;104755;1257;65524;-52
2023/09/29 06:48:28;;;;;;;15.30;9.30;;;;;;;16.70;100.00;101116.39;104823;1257;71468;-54
2023/09/29 06:50:59;;;;;;;16.90;10.10;;;;;;;16.77;100.00;101115.82;105552;1254;60611;-54
2023/09/29 06:53:28;;;;;;;14.40;9.30;;;;;;;16.86;100.00;101115.00;104985;1256;60538;-55
2023/09/29 06:55:57;;;;;;;13.70;8.80;;;;;;;16.94;100.00;101115.98;106462;1259;72577;-52
2023/09/29 06:58:25;;;;;;;13.80;9.60;;;;;;;17.04;100.00;101117.29;104709;1254;65511;-53
2023/09/29 07:00:54;;;;;;;14.90;8.90;;;;;;;17.14;100.00;101115.83;105229;1259;71444;-54
2023/09/29 07:03:22;;;;;;;10.00;7.20;;;;;;;17.24;100.00;101115.62;104708;1254;60464;-53
2023/09/29 07:05:49;;;;;;;20.00;9.10;;;;;;;17.36;100.00;101117.17;104878;1254;60645;-54
2023/09/29 07:08:17;;;;;;;12.40;8.40;;;;;;;17.47;100.00;101114.38;104878;1254;72788;-52
2023/09/29 07:10:45;;;;;;;11.10;8.50;;;;;;;17.59;100.00;101116.27;104820;1259;68049;-53
2023/09/29 07:13:14;;;;;;;15.60;8.20;;;;;;;17.71;100.00;101111.95;105103;1254;71442;-54
2023/09/29 07:15:41;;;;;;;17.40;8.60;;;;;;;17.83;100.00;101108.02;104812;1255;60521;-53
2023/09/29 07:18:10;;;;;;;10.40;7.10;;;;;;;17.94;100.00;101107.59;104703;1257;60592;-55
2023/09/29 07:20:45;;;;;;;10.90;7.30;;;;;;;18.05;100.00;101103.66;105615;1254;72854;-54
2023/09/29 07:23:12;;;;;;;11.00;6.10;;;;;;;18.17;100.00;101105.17;105209;1254;65727;-53
2023/09/29 07:25:40;;;;;;;30.60;8.00;;;;;;;18.26;100.00;101106.27;104894;1254;71492;-54
2023/09/29 07:28:13;;;;;;;8.20;5.50;;;;;;;18.35;100.00;101106.45;104820;1254;60549;-54
2023/09/29 07:30:41;;;;;;;8.90;5.00;;;;;;;18.45;100.00;101105.67;105007;1256;60866;-55
2023/09/29 07:33:11;;;;;;;9.00;4.60;;;;;;;18.54;100.00;101108.39;105758;1254;72692;-52
2023/09/29 07:35:39;;;;;;;6.30;5.00;;;;;;;18.65;100.00;101104.71;104924;1254;64739;-55
2023/09/29 07:38:07;;;;;;;9.70;5.10;;;;;;;18.75;100.00;101103.36;104819;1259;73178;-54
2023/09/29 07:40:34;;;;;;;7.30;4.80;;;;;;;18.85;100.00;101105.27;105002;1257;60563;-54
2023/09/29 07:43:04;;;;;;;9.70;4.70;;;;;;;18.97;100.00;101109.80;104609;1259;61584;-55
2023/09/29 07:45:32;;;;;;;4.60;4.20;;;;;;;19.08;100.00;101106.60;105356;1259;72800;-53
2023/09/29 07:47:59;;;;;;;13.50;6.70;;;;;;;19.18;100.00;101107.41;106093;1254;66008;-52
2023/09/29 07:50:26;;;;;;;7.30;5.70;;;;;;;19.30;100.00;101105.57;104849;1257;71465;-53
2023/09/29 07:52:54;;;;;;;6.20;3.60;;;;;;;19.42;100.00;101105.71;104796;1257;60565;-52
2023/09/29 07:55:22;;;;;;;8.50;4.80;;;;;;;19.51;100.00;101100.92;104698;1254;60528;-54
2023/09/29 07:57:51;;;;;;;9.70;4.70;;;;;;;19.62;100.00;101102.58;106384;1259;73899;-54
2023/09/29 08:00:18;;;;;;;6.70;3.80;;;;;;;19.73;100.00;101104.44;104594;1254;66718;-54
2023/09/29 08:02:46;;;;;;;10.20;3.80;;;;;;;19.83;100.00;101107.61;106207;1259;73577;-53
2023/09/29 08:05:14;;;;;;;10.20;4.10;;;;;;;19.93;100.00;101110.92;104760;1257;60956;-53
2023/09/29 08:07:41;;;;;;;10.10;4.20;;;;;;;20.03;100.00;101108.65;104899;1254;60565;-54
2023/09/29 08:10:10;;;;;;;3.50;3.20;;;;;;;20.11;100.00;101105.02;104695;1256;72679;-54
2023/09/29 08:12:38;;;;;;;6.10;2.90;;;;;;;20.19;100.00;101103.59;104739;1259;66954;-55
2023/09/29 08:15:06;;;;;;;6.90;4.20;;;;;;;20.29;100.00;101107.46;104697;1259;71094;-54
2023/09/29 08:17:33;;;;;;;2.30;2.00;;;;;;;20.39;100.00;101106.23;105003;1256;60417;-53
2023/09/29 08:20:02;;;;;;;2.80;2.50;;;;;;;20.49;100.00;101109.77;107455;1254;60562;-53
2023/09/29 08:22:29;;;;;;;6.70;2.10;;;;;;;20.58;100.00;101109.52;104731;1257;74335;-53
2023/09/29 08:25:08;;;;;;;8.20;2.50;;;;;;;20.68;100.00;101106.95;104723;1254;65848;-53
2023/09/29 08:27:36;;;;;;;2.60;1.30;;;;;;;20.78;100.00;101104.65;108954;1254;71776;-55
2023/09/29 08:30:05;;;;;;;4.10;1.70;;;;;;;20.87;100.00;101104.98;108979;1255;59652;-55
2023/09/29 08:32:32;;;;;;;3.00;2.30;;;;;;;20.96;100.00;101105.61;108927;1256;61867;-55
2023/09/29 08:35:00;;;;;;;2.80;1.20;;;;;;;21.04;100.00;101106.46;108973;1256;73959;-55
2023/09/29 08:37:28;;;;;;;1.70;1.30;;;;;;;21.13;100.00;101111.88;108895;1259;67588;-55
2023/09/29 08:39:55;;;;;;;3.60;1.90;;;;;;;21.24;100.00;101113.70;108973;1254;71754;-54
2023/09/29 08:42:37;;;;;;;7.40;1.40;;;;;;;21.34;100.00;101114.96;108682;1257;147014;-55
2023/09/29 08:45:48;;;;;;;2.60;1.20;;;;;;;21.43;100.00;101175.66;102062;1291;601515;-54
2023/09/29 08:48:16;;;;;;;5.70;1.40;;;;;;;21.54;100.00;101167.56;103994;1265;60517;-53
2023/09/29 08:50:44;;;;;;;3.50;1.30;;;;;;;21.63;100.00;101161.61;108071;1265;58837;-54
2023/09/29 08:53:11;;;;;;;3.40;1.20;;;;;;;21.71;100.00;101154.30;108215;1266;72297;-55
2023/09/29 08:55:39;;;;;;;2.00;1.70;;;;;;;21.77;100.00;101153.25;108247;1265;65664;-52
2023/09/29 08:58:07;;;;;;;1.90;1.10;;;;;;;21.85;100.00;101160.02;107902;1266;72687;-54
2023/09/29 09:00:34;;;;;;;2.70;1.30;;;;;;;21.93;100.00;101155.23;108214;1264;165534;-53
2023/09/29 09:03:02;;;;;;;2.40;1.20;;;;;;;22.01;100.00;101154.10;108164;1263;58773;-54
2023/09/29 09:05:30;;;;;;;3.10;1.40;;;;;;;22.08;100.00;101151.41;108365;1264;71033;-53
2023/09/29 09:07:59;;;;;;;5.70;1.20;;;;;;;22.15;100.00;101153.58;106871;1263;66975;-52
2023/09/29 09:10:34;;;;;;;1.90;1.40;;;;;;;22.23;100.00;101155.39;104294;1267;71478;-51
2023/09/29 09:13:02;;;;;;;4.20;1.10;;;;;;;22.29;100.00;101154.06;104234;1269;60193;-54
2023/09/29 09:15:30;;;;;;;1.30;1.20;;;;;;;22.32;100.00;101153.04;105432;1265;59902;-53
2023/09/29 09:17:58;;;;;;;2.20;1.10;;;;;;;22.35;100.00;101151.72;104913;1263;71858;-52
2023/09/29 09:20:26;;;;;;;2.40;1.20;;;;;;;22.39;100.00;101148.34;104128;1263;65778;-52
2023/09/29 09:23:00;;;;;;;1.80;1.30;;;;;;;22.43;100.00;101149.50;104327;1265;72124;-53
2023/09/29 09:25:35;;;;;;;4.20;1.50;;;;;;;22.47;100.00;101146.81;104077;1265;60539;-52
2023/09/29 09:28:04;;;;;;;3.40;1.10;;;;;;;22.52;100.00;101150.81;105424;1263;61134;-54
2023/09/29 09:30:36;;;;;;;6.20;1.40;;;;;;;22.57;100.00;101153.69;104206;1263;72865;-51
2023/09/29 09:33:07;;;;;;;4.00;1.10;;;;;;;22.63;100.00;101156.19;104459;1265;66550;-53
2023/09/29 09:35:37;;;;;;;4.00;1.40;;;;;;;22.70;100.00;101153.16;104063;1266;74303;-51
2023/09/29 09:38:05;;;;;;;3.80;1.20;;;;;;;22.75;100.00;101155.50;106182;1263;59820;-54
2023/09/29 09:40:32;;;;;;;4.50;1.40;;;;;;;22.79;100.00;101156.11;103984;1264;59777;-53
2023/09/29 09:43:05;;;;;;;5.10;1.20;;;;;;;22.79;100.00;101158.80;104628;1258;72912;-54
2023/09/29 09:45:37;;;;;;;2.10;1.20;;;;;;;22.77;100.00;101155.02;104726;1257;67214;-53
2023/09/29 09:48:09;;;;;;;1.50;1.10;;;;;;;22.77;100.00;101158.86;108802;1256;71202;-53
2023/09/29 09:50:41;;;;;;;2.20;1.50;;;;;;;22.79;100.00;101159.16;106865;1257;60172;-54
2023/09/29 09:53:11;;;;;;;5.90;1.60;;;;;;;22.84;100.00;101157.71;104416;1257;62487;-54
2023/09/29 09:55:39;;;;;;;3.10;1.30;;;;;;;22.87;100.00;101156.92;108672;1257;72497;-53
2023/09/29 09:58:12;;;;;;;4.10;1.20;;;;;;;22.92;100.00;101154.17;108777;1256;65331;-54
2023/09/29 10:00:41;;;;;;;4.30;1.50;;;;;;;22.93;100.00;101159.35;108652;1256;72759;-54
2023/09/29 10:03:11;;;;;;;1.80;1.20;;;;;;;22.95;100.00;101157.77;106648;1260;60162;-55
2023/09/29 10:05:41;;;;;;;2.20;1.10;;;;;;;22.96;100.00;101149.95;108712;1256;58915;-55
2023/09/29 10:08:10;;;;;;;2.30;1.20;;;;;;;22.99;100.00;101151.55;104919;1259;73102;-55
2023/09/29 10:10:40;;;;;;;4.50;1.30;;;;;;;23.04;100.00;101146.26;105411;1260;66932;-55
2023/09/29 10:13:15;;;;;;;3.40;1.30;;;;;;;23.09;100.00;101148.79;104499;1257;71467;-53
2023/09/29 10:15:42;;;;;;;4.50;1.80;;;;;;;23.14;100.00;101143.98;107783;1257;60208;-55
2023/09/29 10:18:18;;;;;;;3.20;1.00;;;;;;;23.19;100.00;101142.73;104485;1256;59733;-53
2023/09/29 10:21:00;;;;;;;3.30;1.20;;;;;;;23.22;100.00;101142.63;106406;1258;71804;-55
2023/09/29 10:23:28;;;;;;;2.90;1.40;;;;;;;23.25;100.00;101142.55;105866;1257;64680;-54
2023/09/29 10:25:58;;;;;;;9.60;1.40;;;;;;;23.28;100.00;101138.31;104430;1258;70809;-55
2023/09/29 10:28:39;;;;;;;1.20;1.10;;;;;;;23.31;100.00;101138.64;108736;1256;59421;-54
2023/09/29 10:31:17;;;;;;;2.70;1.40;;;;;;;23.32;100.00;101137.58;105773;1256;59627;-55
2023/09/29 10:33:50;;;;;;;5.30;1.40;;;;;;;23.31;100.00;101137.67;104629;1257;71663;-55
2023/09/29 10:36:30;;;;;;;3.70;1.10;;;;;;;23.31;100.00;101134.15;105495;1257;65479;-53
2023/09/29 10:38:58;;;;;;;3.00;1.30;;;;;;;23.32;100.00;101130.86;104640;1257;71537;-53
2023/09/29 10:41:28;;;;;;;1.10;1.00;;;;;;;23.31;100.00;101130.69;105341;1259;59795;-55
2023/09/29 10:44:04;;;;;;;3.60;1.40;;;;;;;23.34;100.00;101124.61;104880;1256;59579;-53
2023/09/29 10:46:31;;;;;;;3.00;1.10;;;;;;;23.37;100.00;101126.02;104693;1256;73090;-54
2023/09/29 10:48:59;;;;;;;1.60;1.10;;;;;;;23.40;100.00;101121.38;104506;1256;65882;-53
2023/09/29 10:51:30;;;;;;;1.50;1.00;;;;;;;23.42;100.00;101119.45;104371;1262;72633;-53
2023/09/29 10:54:07;;;;;;;3.00;1.30;;;;;;;23.44;100.00;101116.92;104589;1256;59782;-55
2023/09/29 10:56:36;;;;;;;9.60;1.70;;;;;;;23.45;100.00;101113.33;104874;1261;59651;-54
2023/09/29 10:59:08;;;;;;;4.30;1.30;;;;;;;23.45;100.00;101114.40;105312;1256;73059;-55
2023/09/29 11:01:36;;;;;;;4.70;1.40;;;;;;;23.45;100.00;101110.02;105694;1257;65835;-54
2023/09/29 11:04:07;;;;;;;5.80;1.30;;;;;;;23.44;100.00;101108.27;104681;1256;73120;-51
2023/09/29 11:06:49;;;;;;;5.10;1.20;;;;;;;23.41;100.00;101110.12;105946;1261;59614;-55
2023/09/29 11:09:19;;;;;;;3.20;1.40;;;;;;;23.38;100.00;101101.80;107919;1256;59664;-53
2023/09/29 11:11:48;;;;;;;7.50;1.40;;;;;;;23.37;100.00;101102.23;104609;1256;71850;-54
2023/09/29 11:14:16;;;;;;;3.80;1.30;;;;;;;23.38;100.00;101098.49;105445;1256;65711;-53
2023/09/29 11:16:57;;;;;;;9.30;5.00;;;;;;;23.39;100.00;101096.15;104665;1257;71490;-54